sensor_id;sensor_type;location;lat;lon;timestamp;pressure;altitude;pressure_sealevel;temperature;humidity
16806;BME280;8520;50.102;20.010;2023-02-16T00:01:22;99175.53;;;2.04;96.58
16806;BME280;8520;50.102;20.010;2023-02-16T00:03:52;99170.00;;;2.18;96.43
16806;BME280;8520;50.102;20.010;2023-02-16T00:06:21;99173.63;;;1.93;96.14
16806;BME280;8520;50.102;20.010;2023-02-16T00:08:53;99188.81;;;1.55;97.31
16806;BME280;8520;50.102;20.010;2023-02-16T00:11:26;99187.66;;;1.60;97.35
16806;BME280;8520;50.102;20.010;2023-02-16T00:14:13;99181.00;;;1.82;96.71
16806;BME280;8520;50.102;20.010;2023-02-16T00:16:41;99171.59;;;2.12;95.25
16806;BME280;8520;50.102;20.010;2023-02-16T00:19:18;99177.91;;;1.84;95.30
16806;BME280;8520;50.102;20.010;2023-02-16T00:21:47;99167.84;;;1.66;94.75
16806;BME280;8520;50.102;20.010;2023-02-16T00:24:16;99166.28;;;1.76;95.40
16806;BME280;8520;50.102;20.010;2023-02-16T00:26:45;99169.03;;;1.58;94.85
16806;BME280;8520;50.102;20.010;2023-02-16T00:29:17;99167.78;;;1.88;94.71
16806;BME280;8520;50.102;20.010;2023-02-16T00:31:46;99155.03;;;1.70;94.21
16806;BME280;8520;50.102;20.010;2023-02-16T00:34:30;99155.03;;;1.70;95.36
16806;BME280;8520;50.102;20.010;2023-02-16T00:37:01;99151.56;;;2.58;92.97
16806;BME280;8520;50.102;20.010;2023-02-16T00:39:31;99153.94;;;2.48;92.18
16806;BME280;8520;50.102;20.010;2023-02-16T00:42:01;99143.78;;;2.60;91.65
16806;BME280;8520;50.102;20.010;2023-02-16T00:44:33;99135.19;;;3.17;90.61
16806;BME280;8520;50.102;20.010;2023-02-16T00:47:12;99137.31;;;2.95;90.90
16806;BME280;8520;50.102;20.010;2023-02-16T00:49:44;99139.94;;;3.50;88.57
16806;BME280;8520;50.102;20.010;2023-02-16T00:52:32;99140.25;;;3.14;89.84
16806;BME280;8520;50.102;20.010;2023-02-16T00:55:06;99129.28;;;2.73;90.95
16806;BME280;8520;50.102;20.010;2023-02-16T00:57:36;99120.53;;;3.45;89.16
16806;BME280;8520;50.102;20.010;2023-02-16T01:00:11;99113.44;;;3.09;87.71
16806;BME280;8520;50.102;20.010;2023-02-16T01:02:41;99121.75;;;3.36;87.61
16806;BME280;8520;50.102;20.010;2023-02-16T01:05:10;99119.31;;;3.08;89.01
16806;BME280;8520;50.102;20.010;2023-02-16T01:07:38;99120.38;;;3.21;88.22
16806;BME280;8520;50.102;20.010;2023-02-16T01:10:28;99115.44;;;3.05;88.30
16806;BME280;8520;50.102;20.010;2023-02-16T01:13:14;99105.75;;;3.01;88.78
16806;BME280;8520;50.102;20.010;2023-02-16T01:15:43;99106.28;;;2.85;87.74
16806;BME280;8520;50.102;20.010;2023-02-16T01:18:12;99097.31;;;3.33;85.93
16806;BME280;8520;50.102;20.010;2023-02-16T01:20:42;99098.41;;;3.77;84.63
16806;BME280;8520;50.102;20.010;2023-02-16T01:23:10;99103.59;;;3.64;85.27
16806;BME280;8520;50.102;20.010;2023-02-16T01:25:41;99110.56;;;2.86;86.84
16806;BME280;8520;50.102;20.010;2023-02-16T01:28:17;99101.47;;;3.45;85.82
16806;BME280;8520;50.102;20.010;2023-02-16T01:30:46;99097.72;;;3.31;85.65
16806;BME280;8520;50.102;20.010;2023-02-16T01:33:14;99102.53;;;3.54;83.95
16806;BME280;8520;50.102;20.010;2023-02-16T01:35:42;99088.47;;;3.18;85.93
16806;BME280;8520;50.102;20.010;2023-02-16T01:38:15;99084.88;;;2.87;86.88
16806;BME280;8520;50.102;20.010;2023-02-16T01:40:52;99082.94;;;2.88;86.94
16806;BME280;8520;50.102;20.010;2023-02-16T01:43:25;99078.78;;;2.10;89.23
16806;BME280;8520;50.102;20.010;2023-02-16T01:46:00;99076.56;;;2.53;88.83
16806;BME280;8520;50.102;20.010;2023-02-16T01:48:30;99078.72;;;2.24;88.65
16806;BME280;8520;50.102;20.010;2023-02-16T01:51:04;99076.53;;;1.94;90.86
16806;BME280;8520;50.102;20.010;2023-02-16T01:53:37;99080.03;;;1.91;90.35
16806;BME280;8520;50.102;20.010;2023-02-16T01:56:17;99085.78;;;2.11;91.57
16806;BME280;8520;50.102;20.010;2023-02-16T01:58:49;99075.19;;;2.31;90.75
16806;BME280;8520;50.102;20.010;2023-02-16T02:01:40;99073.34;;;2.10;90.79
16806;BME280;8520;50.102;20.010;2023-02-16T02:04:18;99068.25;;;2.19;89.77
16806;BME280;8520;50.102;20.010;2023-02-16T02:07:05;99068.00;;;1.95;89.77
16806;BME280;8520;50.102;20.010;2023-02-16T02:09:37;99067.91;;;2.13;89.74
16806;BME280;8520;50.102;20.010;2023-02-16T02:12:15;99070.09;;;1.59;91.25
16806;BME280;8520;50.102;20.010;2023-02-16T02:14:47;99060.66;;;1.82;91.74
16806;BME280;8520;50.102;20.010;2023-02-16T02:17:17;99061.91;;;1.66;92.20
16806;BME280;8520;50.102;20.010;2023-02-16T02:19:55;99056.94;;;1.43;92.14
16806;BME280;8520;50.102;20.010;2023-02-16T02:22:53;99058.59;;;0.88;94.00
16806;BME280;8520;50.102;20.010;2023-02-16T02:26:16;99054.22;;;1.43;93.13
16806;BME280;8520;50.102;20.010;2023-02-16T02:28:59;99050.28;;;1.55;92.98
16806;BME280;8520;50.102;20.010;2023-02-16T02:31:41;99060.44;;;1.33;92.63
16806;BME280;8520;50.102;20.010;2023-02-16T02:34:19;99051.91;;;1.42;92.18
16806;BME280;8520;50.102;20.010;2023-02-16T02:37:02;99063.03;;;1.73;92.00
16806;BME280;8520;50.102;20.010;2023-02-16T02:39:37;99060.72;;;1.71;91.18
16806;BME280;8520;50.102;20.010;2023-02-16T02:42:12;99052.66;;;1.42;92.07
16806;BME280;8520;50.102;20.010;2023-02-16T02:44:52;99051.50;;;1.43;91.77
16806;BME280;8520;50.102;20.010;2023-02-16T02:47:22;99055.00;;;1.44;91.26
16806;BME280;8520;50.102;20.010;2023-02-16T02:49:51;99047.09;;;1.78;91.27
16806;BME280;8520;50.102;20.010;2023-02-16T02:52:21;99052.75;;;1.14;91.87
16806;BME280;8520;50.102;20.010;2023-02-16T02:54:50;99055.06;;;1.19;92.20
16806;BME280;8520;50.102;20.010;2023-02-16T02:57:38;99044.22;;;1.19;93.56
16806;BME280;8520;50.102;20.010;2023-02-16T03:00:39;99058.91;;;1.32;93.04
16806;BME280;8520;50.102;20.010;2023-02-16T03:03:13;99052.66;;;1.46;92.08
16806;BME280;8520;50.102;20.010;2023-02-16T03:05:45;99053.03;;;1.52;91.56
16806;BME280;8520;50.102;20.010;2023-02-16T03:08:16;99056.53;;;1.52;91.59
16806;BME280;8520;50.102;20.010;2023-02-16T03:10:49;99057.03;;;0.87;92.56
16806;BME280;8520;50.102;20.010;2023-02-16T03:13:39;99063.25;;;0.48;94.17
16806;BME280;8520;50.102;20.010;2023-02-16T03:16:12;99071.00;;;1.10;93.07
16806;BME280;8520;50.102;20.010;2023-02-16T03:18:42;99057.84;;;0.83;94.36
16806;BME280;8520;50.102;20.010;2023-02-16T03:21:31;99060.91;;;1.03;92.84
16806;BME280;8520;50.102;20.010;2023-02-16T03:24:21;99063.47;;;1.60;91.34
16806;BME280;8520;50.102;20.010;2023-02-16T03:27:09;99055.41;;;1.39;90.01
16806;BME280;8520;50.102;20.010;2023-02-16T03:29:56;99060.06;;;1.38;90.87
16806;BME280;8520;50.102;20.010;2023-02-16T03:32:26;99060.84;;;1.39;90.55
16806;BME280;8520;50.102;20.010;2023-02-16T03:34:54;99059.59;;;1.61;90.16
16806;BME280;8520;50.102;20.010;2023-02-16T03:37:23;99058.88;;;1.47;89.48
16806;BME280;8520;50.102;20.010;2023-02-16T03:39:51;99064.94;;;1.86;88.18
16806;BME280;8520;50.102;20.010;2023-02-16T03:42:37;99053.63;;;1.91;87.42
16806;BME280;8520;50.102;20.010;2023-02-16T03:45:06;99056.16;;;1.47;88.72
16806;BME280;8520;50.102;20.010;2023-02-16T03:47:36;99044.38;;;1.85;87.93
16806;BME280;8520;50.102;20.010;2023-02-16T03:50:05;99049.19;;;2.22;86.59
16806;BME280;8520;50.102;20.010;2023-02-16T03:52:34;99064.63;;;1.63;86.29
16806;BME280;8520;50.102;20.010;2023-02-16T03:55:02;99046.78;;;2.39;85.44
16806;BME280;8520;50.102;20.010;2023-02-16T03:57:30;99048.19;;;2.58;84.72
16806;BME280;8520;50.102;20.010;2023-02-16T03:59:59;99047.75;;;2.63;84.02
16806;BME280;8520;50.102;20.010;2023-02-16T04:02:28;99048.56;;;1.97;84.69
16806;BME280;8520;50.102;20.010;2023-02-16T04:04:58;99043.75;;;2.22;85.20
16806;BME280;8520;50.102;20.010;2023-02-16T04:07:27;99057.88;;;2.03;85.98
16806;BME280;8520;50.102;20.010;2023-02-16T04:09:57;99049.19;;;2.22;84.85
16806;BME280;8520;50.102;20.010;2023-02-16T04:12:26;99040.72;;;2.13;84.33
16806;BME280;8520;50.102;20.010;2023-02-16T04:15:04;99043.94;;;2.56;84.10
16806;BME280;8520;50.102;20.010;2023-02-16T04:17:32;99047.91;;;2.38;84.22
16806;BME280;8520;50.102;20.010;2023-02-16T04:20:02;99043.31;;;2.31;83.44
16806;BME280;8520;50.102;20.010;2023-02-16T04:22:31;99041.94;;;2.05;86.07
16806;BME280;8520;50.102;20.010;2023-02-16T04:24:59;99043.78;;;2.19;84.06
16806;BME280;8520;50.102;20.010;2023-02-16T04:27:27;99042.94;;;2.29;84.62
16806;BME280;8520;50.102;20.010;2023-02-16T04:29:55;99038.69;;;2.76;83.60
16806;BME280;8520;50.102;20.010;2023-02-16T04:32:23;99042.56;;;2.27;85.40
16806;BME280;8520;50.102;20.010;2023-02-16T04:34:51;99040.69;;;2.20;84.89
16806;BME280;8520;50.102;20.010;2023-02-16T04:37:20;99031.38;;;2.70;83.10
16806;BME280;8520;50.102;20.010;2023-02-16T04:39:48;99036.53;;;2.02;84.74
16806;BME280;8520;50.102;20.010;2023-02-16T04:42:17;99036.06;;;2.14;84.83
16806;BME280;8520;50.102;20.010;2023-02-16T04:44:45;99028.22;;;2.19;85.05
16806;BME280;8520;50.102;20.010;2023-02-16T04:47:13;99028.38;;;2.98;82.93
16806;BME280;8520;50.102;20.010;2023-02-16T04:49:41;99027.06;;;2.72;82.44
16806;BME280;8520;50.102;20.010;2023-02-16T04:52:13;99024.94;;;2.46;83.90
16806;BME280;8520;50.102;20.010;2023-02-16T04:54:43;99029.78;;;3.13;81.59
16806;BME280;8520;50.102;20.010;2023-02-16T04:57:11;99033.78;;;2.61;82.92
16806;BME280;8520;50.102;20.010;2023-02-16T04:59:39;99023.59;;;2.68;82.69
16806;BME280;8520;50.102;20.010;2023-02-16T05:02:07;99022.38;;;2.76;83.10
16806;BME280;8520;50.102;20.010;2023-02-16T05:04:36;99036.28;;;2.85;81.95
16806;BME280;8520;50.102;20.010;2023-02-16T05:07:04;99026.84;;;2.97;81.40
16806;BME280;8520;50.102;20.010;2023-02-16T05:09:32;99028.22;;;2.19;83.69
16806;BME280;8520;50.102;20.010;2023-02-16T05:12:01;99028.34;;;2.05;84.31
16806;BME280;8520;50.102;20.010;2023-02-16T05:14:47;99025.88;;;1.45;87.03
16806;BME280;8520;50.102;20.010;2023-02-16T05:17:17;99020.78;;;1.61;87.21
16806;BME280;8520;50.102;20.010;2023-02-16T05:19:47;99030.56;;;1.48;87.67
16806;BME280;8520;50.102;20.010;2023-02-16T05:22:17;99023.03;;;1.80;86.46
16806;BME280;8520;50.102;20.010;2023-02-16T05:24:46;99023.69;;;2.02;84.75
16806;BME280;8520;50.102;20.010;2023-02-16T05:27:18;99006.72;;;2.43;83.52
16806;BME280;8520;50.102;20.010;2023-02-16T05:29:46;99015.34;;;2.31;83.63
16806;BME280;8520;50.102;20.010;2023-02-16T05:32:15;99009.25;;;2.64;82.99
16806;BME280;8520;50.102;20.010;2023-02-16T05:34:44;99007.72;;;2.63;82.56
16806;BME280;8520;50.102;20.010;2023-02-16T05:37:13;99021.22;;;2.25;82.86
16806;BME280;8520;50.102;20.010;2023-02-16T05:39:42;99011.78;;;2.37;83.40
16806;BME280;8520;50.102;20.010;2023-02-16T05:42:10;99015.34;;;2.31;83.48
16806;BME280;8520;50.102;20.010;2023-02-16T05:44:40;99019.50;;;2.46;83.21
16806;BME280;8520;50.102;20.010;2023-02-16T05:47:08;99028.34;;;2.05;83.34
16806;BME280;8520;50.102;20.010;2023-02-16T05:49:37;99022.75;;;2.30;83.38
16806;BME280;8520;50.102;20.010;2023-02-16T05:52:05;99036.78;;;2.18;83.96
16806;BME280;8520;50.102;20.010;2023-02-16T05:54:33;99037.44;;;2.40;83.91
16806;BME280;8520;50.102;20.010;2023-02-16T05:57:01;99034.50;;;2.68;83.08
16806;BME280;8520;50.102;20.010;2023-02-16T05:59:29;99034.59;;;2.54;82.36
16806;BME280;8520;50.102;20.010;2023-02-16T06:01:58;99038.53;;;2.49;82.63
16806;BME280;8520;50.102;20.010;2023-02-16T06:04:27;99038.44;;;2.60;82.74
16806;BME280;8520;50.102;20.010;2023-02-16T06:06:55;99034.25;;;1.93;84.07
16806;BME280;8520;50.102;20.010;2023-02-16T06:09:23;99034.00;;;2.28;84.40
16806;BME280;8520;50.102;20.010;2023-02-16T06:11:51;99040.25;;;2.25;84.96
16806;BME280;8520;50.102;20.010;2023-02-16T06:14:20;99033.81;;;2.53;83.10
16806;BME280;8520;50.102;20.010;2023-02-16T06:16:49;99040.13;;;2.43;83.37
16806;BME280;8520;50.102;20.010;2023-02-16T06:19:19;99037.25;;;2.06;83.73
16806;BME280;8520;50.102;20.010;2023-02-16T06:21:47;99042.16;;;2.32;83.92
16806;BME280;8520;50.102;20.010;2023-02-16T06:24:15;99035.72;;;2.05;84.57
16806;BME280;8520;50.102;20.010;2023-02-16T06:26:43;99040.88;;;2.47;83.79
16806;BME280;8520;50.102;20.010;2023-02-16T06:29:11;99046.63;;;3.01;82.66
16806;BME280;8520;50.102;20.010;2023-02-16T06:31:40;99045.25;;;2.82;82.10
16806;BME280;8520;50.102;20.010;2023-02-16T06:34:08;99042.78;;;2.50;82.35
16806;BME280;8520;50.102;20.010;2023-02-16T06:36:37;99030.28;;;3.05;82.14
16806;BME280;8520;50.102;20.010;2023-02-16T06:39:08;99038.66;;;2.80;81.90
16806;BME280;8520;50.102;20.010;2023-02-16T06:41:36;99031.16;;;2.91;82.28
16806;BME280;8520;50.102;20.010;2023-02-16T06:44:08;99032.09;;;2.77;82.07
16806;BME280;8520;50.102;20.010;2023-02-16T06:46:38;99037.16;;;3.17;81.33
16806;BME280;8520;50.102;20.010;2023-02-16T06:49:06;99031.38;;;3.11;81.47
16806;BME280;8520;50.102;20.010;2023-02-16T06:51:34;99042.28;;;3.49;80.48
16806;BME280;8520;50.102;20.010;2023-02-16T06:54:04;99045.94;;;2.94;80.51
16806;BME280;8520;50.102;20.010;2023-02-16T06:56:32;99055.78;;;2.25;83.09
16806;BME280;8520;50.102;20.010;2023-02-16T06:59:03;99048.31;;;2.88;82.31
16806;BME280;8520;50.102;20.010;2023-02-16T07:01:31;99043.53;;;2.58;82.81
16806;BME280;8520;50.102;20.010;2023-02-16T07:03:59;99050.97;;;2.47;83.36
16806;BME280;8520;50.102;20.010;2023-02-16T07:06:28;99046.25;;;2.54;84.96
16806;BME280;8520;50.102;20.010;2023-02-16T07:08:57;99052.44;;;1.99;85.49
16806;BME280;8520;50.102;20.010;2023-02-16T07:11:27;99046.72;;;1.76;87.19
16806;BME280;8520;50.102;20.010;2023-02-16T07:13:55;99045.72;;;1.34;88.50
16806;BME280;8520;50.102;20.010;2023-02-16T07:16:23;99046.38;;;1.74;88.25
16806;BME280;8520;50.102;20.010;2023-02-16T07:18:52;99054.44;;;1.88;87.28
16806;BME280;8520;50.102;20.010;2023-02-16T07:21:20;99053.50;;;1.29;89.52
16806;BME280;8520;50.102;20.010;2023-02-16T07:23:48;99062.38;;;1.36;89.81
16806;BME280;8520;50.102;20.010;2023-02-16T07:26:16;99067.84;;;1.22;89.86
16806;BME280;8520;50.102;20.010;2023-02-16T07:28:46;99061.66;;;1.29;90.65
16806;BME280;8520;50.102;20.010;2023-02-16T07:31:15;99060.84;;;1.32;90.17
16806;BME280;8520;50.102;20.010;2023-02-16T07:33:44;99051.53;;;1.40;90.94
16806;BME280;8520;50.102;20.010;2023-02-16T07:36:12;99057.78;;;1.19;90.59
16806;BME280;8520;50.102;20.010;2023-02-16T07:38:40;99051.97;;;1.13;90.96
16806;BME280;8520;50.102;20.010;2023-02-16T07:41:09;99046.94;;;1.08;91.24
16806;BME280;8520;50.102;20.010;2023-02-16T07:43:38;99060.47;;;1.30;91.00
16806;BME280;8520;50.102;20.010;2023-02-16T07:46:10;99049.28;;;0.99;91.93
16806;BME280;8520;50.102;20.010;2023-02-16T07:48:38;99051.94;;;1.31;91.13
16806;BME280;8520;50.102;20.010;2023-02-16T07:51:06;99043.38;;;1.40;90.49
16806;BME280;8520;50.102;20.010;2023-02-16T07:53:34;99036.81;;;1.27;91.08
16806;BME280;8520;50.102;20.010;2023-02-16T07:56:03;99045.69;;;1.41;90.22
16806;BME280;8520;50.102;20.010;2023-02-16T07:58:36;99034.34;;;1.64;89.33
16806;BME280;8520;50.102;20.010;2023-02-16T08:01:07;99042.47;;;1.75;89.35
16806;BME280;8520;50.102;20.010;2023-02-16T08:03:37;99023.84;;;1.70;89.10
16806;BME280;8520;50.102;20.010;2023-02-16T08:06:06;99037.81;;;1.76;89.50
16806;BME280;8520;50.102;20.010;2023-02-16T08:08:34;99050.81;;;2.13;88.74
16806;BME280;8520;50.102;20.010;2023-02-16T08:11:08;99048.84;;;2.17;88.13
16806;BME280;8520;50.102;20.010;2023-02-16T08:13:36;99045.31;;;2.23;88.29
16806;BME280;8520;50.102;20.010;2023-02-16T08:16:07;99052.81;;;2.02;88.13
16806;BME280;8520;50.102;20.010;2023-02-16T08:18:37;99032.44;;;2.27;88.27
16806;BME280;8520;50.102;20.010;2023-02-16T08:21:09;99043.75;;;2.22;87.98
16806;BME280;8520;50.102;20.010;2023-02-16T08:23:41;99035.38;;;2.54;87.22
16806;BME280;8520;50.102;20.010;2023-02-16T08:26:14;99046.81;;;2.80;86.54
16806;BME280;8520;50.102;20.010;2023-02-16T08:28:44;99030.59;;;2.69;86.19
16806;BME280;8520;50.102;20.010;2023-02-16T08:31:13;99034.41;;;2.79;86.46
16806;BME280;8520;50.102;20.010;2023-02-16T08:33:45;99049.81;;;2.48;87.10
16806;BME280;8520;50.102;20.010;2023-02-16T08:36:17;99028.84;;;2.90;85.97
16806;BME280;8520;50.102;20.010;2023-02-16T08:38:46;99034.06;;;3.14;85.17
16806;BME280;8520;50.102;20.010;2023-02-16T08:41:16;99022.94;;;3.02;85.37
16806;BME280;8520;50.102;20.010;2023-02-16T08:43:45;99025.72;;;3.32;84.40
16806;BME280;8520;50.102;20.010;2023-02-16T08:46:14;99009.66;;;3.41;82.86
16806;BME280;8520;50.102;20.010;2023-02-16T08:48:43;99031.56;;;3.31;83.76
16806;BME280;8520;50.102;20.010;2023-02-16T08:51:14;99013.84;;;3.80;82.39
16806;BME280;8520;50.102;20.010;2023-02-16T08:53:43;99015.91;;;3.99;81.77
16806;BME280;8520;50.102;20.010;2023-02-16T08:56:13;99011.19;;;4.31;80.25
16806;BME280;8520;50.102;20.010;2023-02-16T08:58:42;99013.41;;;4.63;79.88
16806;BME280;8520;50.102;20.010;2023-02-16T09:01:11;99013.56;;;4.99;78.56
16806;BME280;8520;50.102;20.010;2023-02-16T09:03:42;99018.31;;;4.48;79.87
16806;BME280;8520;50.102;20.010;2023-02-16T09:06:15;99033.94;;;3.93;80.63
16806;BME280;8520;50.102;20.010;2023-02-16T09:08:43;99016.00;;;4.19;80.73
16806;BME280;8520;50.102;20.010;2023-02-16T09:11:14;99019.44;;;4.74;79.41
16806;BME280;8520;50.102;20.010;2023-02-16T09:13:42;99015.13;;;5.00;78.92
16806;BME280;8520;50.102;20.010;2023-02-16T09:16:14;99010.72;;;5.85;76.79
16806;BME280;8520;50.102;20.010;2023-02-16T09:18:43;99014.84;;;5.93;75.01
16806;BME280;8520;50.102;20.010;2023-02-16T09:21:15;99018.72;;;5.56;75.74
16806;BME280;8520;50.102;20.010;2023-02-16T09:23:45;99017.88;;;5.79;75.93
16806;BME280;8520;50.102;20.010;2023-02-16T09:26:14;99010.16;;;5.74;75.70
16806;BME280;8520;50.102;20.010;2023-02-16T09:28:43;99013.00;;;4.88;77.59
16806;BME280;8520;50.102;20.010;2023-02-16T09:31:12;99014.50;;;5.91;75.67
16806;BME280;8520;50.102;20.010;2023-02-16T09:33:42;99006.22;;;6.47;73.98
16806;BME280;8520;50.102;20.010;2023-02-16T09:36:13;99004.97;;;5.80;74.98
16806;BME280;8520;50.102;20.010;2023-02-16T09:38:41;98999.03;;;6.53;73.47
16806;BME280;8520;50.102;20.010;2023-02-16T09:41:22;99004.94;;;6.68;73.18
16806;BME280;8520;50.102;20.010;2023-02-16T09:43:56;98997.97;;;6.96;71.40
16806;BME280;8520;50.102;20.010;2023-02-16T09:46:25;99000.72;;;6.96;71.28
16806;BME280;8520;50.102;20.010;2023-02-16T09:48:56;99005.94;;;6.91;71.18
16806;BME280;8520;50.102;20.010;2023-02-16T09:51:28;99004.50;;;6.37;71.87
16806;BME280;8520;50.102;20.010;2023-02-16T09:54:09;99010.31;;;6.55;72.19
16806;BME280;8520;50.102;20.010;2023-02-16T09:56:43;99011.69;;;6.47;72.31
16806;BME280;8520;50.102;20.010;2023-02-16T09:59:24;99001.38;;;7.29;70.23
16806;BME280;8520;50.102;20.010;2023-02-16T10:02:01;99011.88;;;7.18;69.73
16806;BME280;8520;50.102;20.010;2023-02-16T10:04:42;99014.28;;;7.99;68.10
16806;BME280;8520;50.102;20.010;2023-02-16T10:07:31;99010.19;;;8.04;67.25
16806;BME280;8520;50.102;20.010;2023-02-16T10:10:07;99006.31;;;7.76;66.66
16806;BME280;8520;50.102;20.010;2023-02-16T10:12:38;99002.84;;;8.01;67.00
16806;BME280;8520;50.102;20.010;2023-02-16T10:15:13;99014.47;;;7.92;67.41
16806;BME280;8520;50.102;20.010;2023-02-16T10:17:45;99012.19;;;6.91;68.90
16806;BME280;8520;50.102;20.010;2023-02-16T10:20:17;99016.63;;;6.85;69.74
16806;BME280;8520;50.102;20.010;2023-02-16T10:22:50;99001.97;;;7.08;68.71
16806;BME280;8520;50.102;20.010;2023-02-16T10:25:22;98996.84;;;7.52;69.18
16806;BME280;8520;50.102;20.010;2023-02-16T10:28:00;99007.53;;;7.04;69.59
16806;BME280;8520;50.102;20.010;2023-02-16T10:30:32;99017.91;;;6.97;69.21
16806;BME280;8520;50.102;20.010;2023-02-16T10:33:06;99017.56;;;6.95;69.78
16806;BME280;8520;50.102;20.010;2023-02-16T10:35:44;99004.94;;;7.43;68.47
16806;BME280;8520;50.102;20.010;2023-02-16T10:38:19;98997.81;;;7.45;68.77
16806;BME280;8520;50.102;20.010;2023-02-16T10:40:54;98992.13;;;7.52;69.22
16806;BME280;8520;50.102;20.010;2023-02-16T10:43:29;98996.94;;;7.90;67.87
16806;BME280;8520;50.102;20.010;2023-02-16T10:46:02;99000.75;;;7.80;67.89
16806;BME280;8520;50.102;20.010;2023-02-16T10:48:31;98985.28;;;8.11;66.98
16806;BME280;8520;50.102;20.010;2023-02-16T10:51:01;98987.03;;;8.31;66.71
16806;BME280;8520;50.102;20.010;2023-02-16T10:53:37;98986.97;;;7.54;67.83
16806;BME280;8520;50.102;20.010;2023-02-16T10:56:24;98982.75;;;8.30;66.08
16806;BME280;8520;50.102;20.010;2023-02-16T10:59:04;98985.16;;;8.66;64.88
16806;BME280;8520;50.102;20.010;2023-02-16T11:01:36;98969.91;;;8.99;64.13
16806;BME280;8520;50.102;20.010;2023-02-16T11:04:05;98977.00;;;9.31;62.53
16806;BME280;8520;50.102;20.010;2023-02-16T11:06:33;98969.59;;;9.19;62.57
16806;BME280;8520;50.102;20.010;2023-02-16T11:09:03;98970.47;;;8.94;62.57
16806;BME280;8520;50.102;20.010;2023-02-16T11:11:35;98961.94;;;8.79;63.61
16806;BME280;8520;50.102;20.010;2023-02-16T11:14:06;98964.31;;;9.25;62.31
16806;BME280;8520;50.102;20.010;2023-02-16T11:16:35;98951.84;;;9.64;61.61
16806;BME280;8520;50.102;20.010;2023-02-16T11:19:05;98951.59;;;9.71;61.06
16806;BME280;8520;50.102;20.010;2023-02-16T11:21:43;98953.66;;;8.92;62.45
16806;BME280;8520;50.102;20.010;2023-02-16T11:24:23;98937.06;;;9.18;61.97
16806;BME280;8520;50.102;20.010;2023-02-16T11:27:04;98929.50;;;9.93;60.16
16806;BME280;8520;50.102;20.010;2023-02-16T11:29:33;98919.72;;;9.92;59.92
16806;BME280;8520;50.102;20.010;2023-02-16T11:32:05;98927.19;;;9.82;60.36
16806;BME280;8520;50.102;20.010;2023-02-16T11:34:36;98917.41;;;10.31;59.27
16806;BME280;8520;50.102;20.010;2023-02-16T11:37:13;98921.09;;;10.28;58.94
16806;BME280;8520;50.102;20.010;2023-02-16T11:39:49;98919.91;;;8.92;60.69
16806;BME280;8520;50.102;20.010;2023-02-16T11:42:27;98904.38;;;9.73;59.59
16806;BME280;8520;50.102;20.010;2023-02-16T11:44:58;98921.19;;;9.44;60.62
16806;BME280;8520;50.102;20.010;2023-02-16T11:47:29;98907.53;;;9.40;59.71
16806;BME280;8520;50.102;20.010;2023-02-16T11:50:12;98910.28;;;9.40;60.66
16806;BME280;8520;50.102;20.010;2023-02-16T11:52:46;98893.91;;;9.98;59.27
16806;BME280;8520;50.102;20.010;2023-02-16T11:55:21;98895.41;;;9.28;59.64
16806;BME280;8520;50.102;20.010;2023-02-16T11:57:50;98893.72;;;9.53;59.02
16806;BME280;8520;50.102;20.010;2023-02-16T12:00:20;98891.88;;;10.30;58.22
16806;BME280;8520;50.102;20.010;2023-02-16T12:03:08;98918.50;;;9.31;58.73
16806;BME280;8520;50.102;20.010;2023-02-16T12:05:51;98894.44;;;9.44;59.80
16806;BME280;8520;50.102;20.010;2023-02-16T12:08:42;98884.47;;;10.18;58.32
16806;BME280;8520;50.102;20.010;2023-02-16T12:11:24;98878.88;;;10.49;57.91
16806;BME280;8520;50.102;20.010;2023-02-16T12:14:04;98872.91;;;10.41;57.68
16806;BME280;8520;50.102;20.010;2023-02-16T12:16:41;98869.75;;;10.03;58.41
16806;BME280;8520;50.102;20.010;2023-02-16T12:19:23;98876.59;;;10.57;57.33
16806;BME280;8520;50.102;20.010;2023-02-16T12:22:02;98866.69;;;9.51;59.42
16806;BME280;8520;50.102;20.010;2023-02-16T12:24:42;98865.88;;;10.68;57.39
16806;BME280;8520;50.102;20.010;2023-02-16T12:27:17;98875.84;;;10.83;56.31
16806;BME280;8520;50.102;20.010;2023-02-16T12:29:53;98862.22;;;10.34;57.65
16806;BME280;8520;50.102;20.010;2023-02-16T12:32:47;98861.13;;;10.77;56.68
16806;BME280;8520;50.102;20.010;2023-02-16T12:35:30;98866.41;;;10.08;56.97
16806;BME280;8520;50.102;20.010;2023-02-16T12:38:08;98856.22;;;10.91;55.51
16806;BME280;8520;50.102;20.010;2023-02-16T12:40:45;98866.97;;;9.93;57.43
16806;BME280;8520;50.102;20.010;2023-02-16T12:43:31;98856.34;;;11.05;55.39
16806;BME280;8520;50.102;20.010;2023-02-16T12:46:03;98852.50;;;11.21;54.70
16806;BME280;8520;50.102;20.010;2023-02-16T12:48:38;98836.88;;;11.18;55.15
16806;BME280;8520;50.102;20.010;2023-02-16T12:51:11;98835.78;;;11.25;55.44
16806;BME280;8520;50.102;20.010;2023-02-16T12:53:45;98836.69;;;11.31;54.76
16806;BME280;8520;50.102;20.010;2023-02-16T12:56:19;98833.44;;;12.70;52.34
16806;BME280;8520;50.102;20.010;2023-02-16T12:59:06;98818.16;;;11.22;54.08
16806;BME280;8520;50.102;20.010;2023-02-16T13:01:42;98838.19;;;10.80;55.81
16806;BME280;8520;50.102;20.010;2023-02-16T13:04:17;98840.94;;;10.71;55.45
16806;BME280;8520;50.102;20.010;2023-02-16T13:06:54;98833.69;;;11.01;55.38
16806;BME280;8520;50.102;20.010;2023-02-16T13:09:34;98842.44;;;10.91;55.37
16806;BME280;8520;50.102;20.010;2023-02-16T13:12:07;98849.81;;;10.39;56.52
16806;BME280;8520;50.102;20.010;2023-02-16T13:14:42;98822.50;;;10.96;56.02
16806;BME280;8520;50.102;20.010;2023-02-16T13:17:14;98820.81;;;11.50;54.95
16806;BME280;8520;50.102;20.010;2023-02-16T13:19:43;98827.22;;;11.14;55.71
16806;BME280;8520;50.102;20.010;2023-02-16T13:22:36;98813.00;;;11.06;55.67
16806;BME280;8520;50.102;20.010;2023-02-16T13:25:39;98820.59;;;11.29;55.34
16806;BME280;8520;50.102;20.010;2023-02-16T13:28:26;98830.75;;;10.13;57.66
16806;BME280;8520;50.102;20.010;2023-02-16T13:31:09;98838.44;;;11.10;55.21
16806;BME280;8520;50.102;20.010;2023-02-16T13:33:54;98825.31;;;10.59;56.21
16806;BME280;8520;50.102;20.010;2023-02-16T13:36:47;98826.66;;;10.91;55.16
16806;BME280;8520;50.102;20.010;2023-02-16T13:39:40;98815.22;;;10.56;56.31
16806;BME280;8520;50.102;20.010;2023-02-16T13:42:32;98807.94;;;11.04;55.25